Home   Weather   France   Paris   Past weeks
Flag for France

Past Weather in Paris, Île-de-France, France — August 2013

Currently: 41 °F. Clear. (Weather station: Villacoublay, France). See more current weather

August 2013 Weather in Paris — Graph

°F

High & Low Weather Summary for August 2013

 TemperatureHumidityPressure
High93 °F (Aug 1, 3:30 pm)100% (Aug 7, 9:00 am)30.39 "Hg (Aug 7, 9:00 am)
Low52 °F (Aug 10, 6:00 am)26% (Aug 1, 6:00 pm)29.80 "Hg (Aug 7, 5:00 am)
Average67 °F64%30.08 "Hg
* Reported Aug 1 12:00 am — Aug 31 11:30 pm, Paris. Weather by CustomWeather, © 2021

Note: Actual official high and low records may vary slightly from our data, if they occured in-between our weather recording intervals... More about our weather records

Paris Weather History for August 1, 2013

Scroll right to see more
 ConditionsComfort  
Time TempWeatherWind HumidityBarometerVisibility
12:00 am
Thu, Aug 1
73 °FClear.3 mph69%30.04 "HgN/A
12:30 am73 °FClear.6 mph69%30.04 "HgN/A
1:00 am72 °FClear.5 mph69%30.01 "HgN/A
1:30 am72 °FClear.6 mph69%30.01 "HgN/A
2:00 am72 °FClear.6 mph69%30.01 "HgN/A
2:30 am72 °FClear.6 mph69%30.01 "HgN/A
3:00 am70 °FClear.3 mph73%30.01 "HgN/A
3:30 am70 °FClear.6 mph73%29.98 "HgN/A
4:00 am70 °FClear.7 mph73%29.98 "HgN/A
4:30 am68 °FClear.6 mph78%29.98 "HgN/A
5:00 am68 °FClear.6 mph78%29.98 "HgN/A
5:30 am66 °FClear.5 mph83%29.98 "HgN/A
6:00 am66 °FClear.3 mph83%29.95 "Hg4 mi
6:30 am66 °FClear.6 mph83%29.95 "HgN/A
7:00 am68 °FClear.7 mph78%29.95 "HgN/A
7:30 am68 °FClear.7 mph78%29.95 "HgN/A
8:00 am68 °FClear.8 mph78%29.95 "HgN/A
8:30 am70 °FClear.10 mph78%29.95 "HgN/A
9:00 am72 °FClear.10 mph73%29.95 "HgN/A
9:30 am73 °FClear.10 mph69%29.95 "HgN/A
10:00 am75 °FClear.9 mph65%29.95 "HgN/A
10:30 am77 °FClear.9 mph61%29.95 "HgN/A
11:00 am79 °FClear.8 mph61%29.92 "HgN/A
11:30 am81 °FClear.6 mph58%29.92 "HgN/A
12:00 pm82 °FClear.9 mph51%29.92 "HgN/A
12:30 pm84 °FClear.9 mph51%29.92 "HgN/A
1:00 pm88 °FClear.8 mph46%29.92 "HgN/A
1:30 pm88 °FClear.9 mph43%29.89 "HgN/A
2:00 pm90 °FClear.9 mph41%29.89 "HgN/A
2:30 pm90 °FClear.9 mph38%29.89 "HgN/A
3:00 pm91 °FClear.12 mph36%29.86 "HgN/A
3:30 pm93 °FClear.9 mph32%29.86 "HgN/A
4:00 pm93 °FClear.10 mph30%29.86 "HgN/A
4:30 pm93 °FClear.9 mph28%29.86 "HgN/A
5:00 pm93 °FClear.12 mph28%29.86 "HgN/A
5:30 pm93 °FClear.13 mph30%29.83 "HgN/A
6:00 pm93 °FClear.12 mph26%29.83 "HgN/A
6:30 pm93 °FClear.10 mph26%29.83 "HgN/A
7:00 pm93 °FClear.9 mph28%29.83 "HgN/A
7:30 pm91 °FClear.9 mph30%29.83 "HgN/A
8:00 pm90 °FClear.7 mph31%29.83 "HgN/A
8:30 pm90 °FClear.7 mph31%29.83 "HgN/A
9:00 pm88 °FClear.6 mph33%29.83 "HgN/A
9:30 pm86 °FClear.6 mph35%29.83 "HgN/A
10:00 pm84 °FClear.6 mph40%29.83 "HgN/A
10:30 pm84 °FClear.7 mph40%29.83 "HgN/A
11:00 pm82 °FClear.6 mph45%29.83 "HgN/A
11:30 pm82 °FClear.7 mph45%29.86 "HgN/A
Weather by CustomWeather, © 2021

See weather overview